createdAt,value
2023-05-14T00:01:32.034Z,18.30
2023-05-14T00:03:59.865Z,19.60
2023-05-14T00:06:27.701Z,17.80
2023-05-14T00:08:55.697Z,17.70
2023-05-14T00:11:24.136Z,18.90
2023-05-14T00:13:52.077Z,21.00
2023-05-14T00:16:19.862Z,19.80
2023-05-14T00:18:47.647Z,20.80
2023-05-14T00:21:15.407Z,18.80
2023-05-14T00:23:43.186Z,20.10
2023-05-14T00:26:10.910Z,18.90
2023-05-14T00:28:39.508Z,19.70
2023-05-14T00:31:07.384Z,21.40
2023-05-14T00:33:35.244Z,22.30
2023-05-14T00:36:04.171Z,20.10
2023-05-14T00:38:32.135Z,22.20
2023-05-14T00:40:59.928Z,20.10
2023-05-14T00:43:27.874Z,20.10
2023-05-14T00:45:56.118Z,22.30
2023-05-14T00:48:25.853Z,20.20
2023-05-14T00:50:53.926Z,20.20
2023-05-14T00:53:22.164Z,22.00
2023-05-14T00:55:51.028Z,19.60
2023-05-14T00:58:19.666Z,23.30
2023-05-14T01:00:48.002Z,21.20
2023-05-14T01:03:16.074Z,19.20
2023-05-14T01:06:09.921Z,21.40
2023-05-14T01:08:56.847Z,19.30
2023-05-14T01:11:27.639Z,23.30
2023-05-14T01:14:12.718Z,23.00
2023-05-14T01:16:40.828Z,19.70
2023-05-14T01:19:35.677Z,20.90
2023-05-14T01:22:03.739Z,21.70
2023-05-14T01:24:31.777Z,19.00
2023-05-14T01:27:13.420Z,21.20
2023-05-14T01:29:49.717Z,20.60
2023-05-14T01:32:20.723Z,22.50
2023-05-14T01:34:51.309Z,22.00
2023-05-14T01:37:19.962Z,22.00
2023-05-14T01:39:50.567Z,22.80
2023-05-14T01:42:18.565Z,24.60
2023-05-14T01:44:46.386Z,25.40
2023-05-14T01:47:14.185Z,23.30
2023-05-14T01:49:41.948Z,22.20
2023-05-14T01:52:10.898Z,22.80
2023-05-14T01:54:38.893Z,24.70
2023-05-14T01:57:06.630Z,24.90
2023-05-14T01:59:34.342Z,19.40
2023-05-14T02:02:02.154Z,21.30
2023-05-14T02:04:30.262Z,22.20
2023-05-14T02:06:58.402Z,26.00
2023-05-14T02:09:26.257Z,24.00
2023-05-14T02:11:54.052Z,20.90
2023-05-14T02:14:21.869Z,20.20
2023-05-14T02:16:51.375Z,23.80
2023-05-14T02:19:19.493Z,19.60
2023-05-14T02:21:48.242Z,21.10
2023-05-14T02:24:16.317Z,23.70
2023-05-14T02:26:44.150Z,20.90
2023-05-14T02:29:11.913Z,21.30
2023-05-14T02:31:39.781Z,21.80
2023-05-14T02:34:07.691Z,21.80
2023-05-14T02:36:35.650Z,18.70
2023-05-14T02:39:04.897Z,20.10
2023-05-14T02:41:32.809Z,20.60
2023-05-14T02:44:00.574Z,20.50
2023-05-14T02:46:28.335Z,21.90
2023-05-14T02:48:56.491Z,20.30
2023-05-14T02:51:24.602Z,18.40
2023-05-14T02:53:52.498Z,21.20
2023-05-14T02:56:21.170Z,21.60
2023-05-14T02:58:48.937Z,21.80
2023-05-14T03:01:18.820Z,22.60
2023-05-14T03:03:47.174Z,20.50
2023-05-14T03:06:15.101Z,22.60
2023-05-14T03:08:42.869Z,23.60
2023-05-14T03:11:10.624Z,21.00
2023-05-14T03:13:38.439Z,20.00
2023-05-14T03:16:06.744Z,20.80
2023-05-14T03:18:36.432Z,20.90
2023-05-14T03:21:04.450Z,22.90
2023-05-14T03:23:35.125Z,22.00
2023-05-14T03:26:03.812Z,26.50
2023-05-14T03:28:31.692Z,20.50
2023-05-14T03:31:01.268Z,24.00
2023-05-14T03:33:29.310Z,22.40
2023-05-14T03:35:57.104Z,23.30
2023-05-14T03:38:24.873Z,24.00
2023-05-14T03:40:52.733Z,24.30
2023-05-14T03:43:20.486Z,25.50
2023-05-14T03:45:52.606Z,22.00
2023-05-14T03:50:48.790Z,23.50
2023-05-14T03:53:16.815Z,25.40
2023-05-14T03:55:46.575Z,25.20
2023-05-14T03:58:14.587Z,22.90
2023-05-14T04:00:43.673Z,22.20
2023-05-14T04:03:12.048Z,23.30
2023-05-14T04:05:39.896Z,23.80
2023-05-14T04:08:07.810Z,22.40
2023-05-14T04:10:35.587Z,21.50
2023-05-14T04:13:03.401Z,23.10
2023-05-14T04:15:35.682Z,21.90
2023-05-14T04:18:03.782Z,20.40
2023-05-14T04:20:31.828Z,20.20
2023-05-14T04:22:59.630Z,21.90
2023-05-14T04:25:27.531Z,22.30
2023-05-14T04:27:55.281Z,22.20
2023-05-14T04:30:23.332Z,19.40
2023-05-14T04:32:51.650Z,22.80
2023-05-14T04:35:23.370Z,23.00
2023-05-14T04:37:52.695Z,25.40
2023-05-14T04:40:20.560Z,25.10
2023-05-14T04:42:48.394Z,23.40
2023-05-14T04:45:16.837Z,21.40
2023-05-14T04:47:46.715Z,24.10
2023-05-14T04:50:14.839Z,21.40
2023-05-14T04:52:42.957Z,21.80
2023-05-14T04:55:10.755Z,19.30
2023-05-14T04:57:38.502Z,21.70
2023-05-14T05:00:09.478Z,18.40
2023-05-14T05:02:37.396Z,19.20
2023-05-14T05:05:05.760Z,17.90
2023-05-14T05:07:33.542Z,20.50
2023-05-14T05:10:01.492Z,20.70
2023-05-14T05:12:30.255Z,20.70
2023-05-14T05:14:58.060Z,16.80
2023-05-14T05:17:26.107Z,20.30
2023-05-14T05:19:54.091Z,18.50
2023-05-14T05:22:22.036Z,18.40
2023-05-14T05:24:50.237Z,18.90
2023-05-14T05:27:18.240Z,18.20
2023-05-14T05:29:46.228Z,21.00
2023-05-14T05:32:14.206Z,20.20
2023-05-14T05:34:42.039Z,19.70
2023-05-14T05:37:12.856Z,20.10
2023-05-14T05:39:40.869Z,19.40
2023-05-14T05:42:08.907Z,20.50
2023-05-14T05:44:36.622Z,18.70
2023-05-14T05:47:05.383Z,20.20
2023-05-14T05:49:33.286Z,19.80
2023-05-14T05:52:01.114Z,20.30
2023-05-14T05:54:28.900Z,20.20
2023-05-14T05:56:56.883Z,18.50
2023-05-14T05:59:26.193Z,18.50
2023-05-14T06:01:54.028Z,18.80
2023-05-14T06:04:21.954Z,18.00
2023-05-14T06:06:49.879Z,18.80
2023-05-14T06:09:17.817Z,17.40
2023-05-14T06:11:45.573Z,19.10
2023-05-14T06:14:13.427Z,22.00
2023-05-14T06:16:41.355Z,19.20
2023-05-14T06:19:10.109Z,19.30
2023-05-14T06:21:38.202Z,17.80
2023-05-14T06:24:06.745Z,19.40
2023-05-14T06:26:34.553Z,17.70
2023-05-14T06:29:02.475Z,17.50
2023-05-14T06:31:30.398Z,16.10
2023-05-14T06:33:58.242Z,16.10
2023-05-14T06:36:26.024Z,17.80
2023-05-14T06:38:53.869Z,18.40
2023-05-14T06:41:21.648Z,18.80
2023-05-14T06:43:49.525Z,19.30
2023-05-14T06:46:17.337Z,16.40
2023-05-14T06:48:45.114Z,18.60
2023-05-14T06:51:13.456Z,15.80
2023-05-14T06:53:41.437Z,16.30
2023-05-14T06:56:09.244Z,16.60
2023-05-14T06:58:37.214Z,18.10
2023-05-14T07:01:05.348Z,15.50
2023-05-14T07:03:33.196Z,15.40
2023-05-14T07:06:01.030Z,17.70
2023-05-14T07:08:28.770Z,16.70
2023-05-14T07:10:57.420Z,15.60
2023-05-14T07:13:28.833Z,16.60
2023-05-14T07:16:00.672Z,15.10
2023-05-14T07:18:28.816Z,17.90
2023-05-14T07:20:57.797Z,16.90
2023-05-14T07:23:25.570Z,16.90
2023-05-14T07:25:53.805Z,15.10
2023-05-14T07:28:21.640Z,17.40
2023-05-14T07:30:49.876Z,16.90
2023-05-14T07:33:17.733Z,16.70
2023-05-14T07:35:45.692Z,17.40
2023-05-14T07:38:13.573Z,16.70
2023-05-14T07:40:41.428Z,16.40
2023-05-14T07:43:10.788Z,16.30
2023-05-14T07:45:39.322Z,16.30
2023-05-14T07:48:07.222Z,20.00
2023-05-14T07:50:35.135Z,18.40
2023-05-14T07:53:03.040Z,18.70
2023-05-14T07:55:31.515Z,16.40
2023-05-14T07:57:59.482Z,17.70
2023-05-14T08:00:27.730Z,17.50
2023-05-14T08:02:55.733Z,19.30
2023-05-14T08:05:23.645Z,18.10
2023-05-14T08:07:51.408Z,18.70
2023-05-14T08:10:19.193Z,19.30
2023-05-14T08:12:46.972Z,18.60
2023-05-14T08:15:14.721Z,17.20
2023-05-14T08:17:42.973Z,19.10
2023-05-14T08:20:12.062Z,18.10
2023-05-14T08:22:40.019Z,19.20
2023-05-14T08:25:08.300Z,21.10
2023-05-14T08:27:37.061Z,20.00
2023-05-14T08:30:06.723Z,18.10
2023-05-14T08:32:34.527Z,17.60
2023-05-14T08:35:02.605Z,18.70
2023-05-14T08:37:30.592Z,18.00
2023-05-14T08:39:58.400Z,17.80
2023-05-14T08:42:28.621Z,18.20
2023-05-14T08:45:02.838Z,17.60
2023-05-14T08:47:31.652Z,17.30
2023-05-14T08:50:06.382Z,18.70
2023-05-14T08:52:35.289Z,17.70
2023-05-14T08:55:05.682Z,19.10
2023-05-14T08:57:34.898Z,16.50
2023-05-14T09:00:08.561Z,18.20
2023-05-14T09:02:36.921Z,18.30
2023-05-14T09:05:07.316Z,18.40
2023-05-14T09:07:36.316Z,18.90
2023-05-14T09:10:05.486Z,20.30
2023-05-14T09:12:33.284Z,19.10
2023-05-14T09:15:01.061Z,18.10
2023-05-14T09:17:29.099Z,18.70
2023-05-14T09:19:57.001Z,18.00
2023-05-14T09:22:25.003Z,19.00
2023-05-14T09:25:12.311Z,18.60
2023-05-14T09:27:40.479Z,17.70
2023-05-14T09:30:13.849Z,18.20
2023-05-14T09:32:44.536Z,16.30
2023-05-14T09:35:21.508Z,20.40
2023-05-14T09:37:52.687Z,17.60
2023-05-14T09:40:24.404Z,16.40
2023-05-14T09:42:52.880Z,17.10
2023-05-14T09:45:20.868Z,15.50
2023-05-14T09:47:49.054Z,18.20
2023-05-14T09:50:17.001Z,17.50
2023-05-14T09:52:44.883Z,17.90
2023-05-14T09:55:13.812Z,18.60
2023-05-14T09:57:42.124Z,16.60
2023-05-14T10:00:12.694Z,17.40
2023-05-14T10:02:43.558Z,18.50
2023-05-14T10:05:13.357Z,16.60
2023-05-14T10:07:47.864Z,15.80
2023-05-14T10:10:19.600Z,16.20
2023-05-14T10:12:58.957Z,14.80
2023-05-14T10:16:10.805Z,18.70
2023-05-14T10:18:45.891Z,15.00
2023-05-14T10:21:17.203Z,16.40
2023-05-14T10:23:46.350Z,15.80
2023-05-14T10:26:14.813Z,16.30
2023-05-14T10:28:43.621Z,14.80
2023-05-14T10:31:12.698Z,15.00
2023-05-14T10:33:51.138Z,16.20
2023-05-14T10:36:22.234Z,15.10
2023-05-14T10:38:57.232Z,15.90
2023-05-14T10:41:25.811Z,15.90
2023-05-14T10:43:53.643Z,16.30
2023-05-14T10:46:21.629Z,18.00
2023-05-14T10:48:49.900Z,15.20
2023-05-14T10:51:20.868Z,14.70
2023-05-14T10:53:49.176Z,13.80
2023-05-14T10:56:16.993Z,14.30
2023-05-14T10:58:46.064Z,12.70
2023-05-14T11:01:14.339Z,17.30
2023-05-14T11:03:46.142Z,16.20
2023-05-14T11:06:16.445Z,14.70
2023-05-14T11:08:46.543Z,18.20
2023-05-14T11:11:15.142Z,18.40
2023-05-14T11:13:44.817Z,13.20
2023-05-14T11:16:22.624Z,14.10
2023-05-14T11:19:03.474Z,14.60
2023-05-14T11:21:32.871Z,17.50
2023-05-14T11:24:01.277Z,13.50
2023-05-14T11:26:29.460Z,16.60
2023-05-14T11:28:57.399Z,15.60
2023-05-14T11:31:25.689Z,14.30
2023-05-14T11:33:54.302Z,17.20
2023-05-14T11:36:22.212Z,15.50
2023-05-14T11:38:51.502Z,15.80
2023-05-14T11:41:21.532Z,15.80
2023-05-14T11:43:49.801Z,13.50
2023-05-14T11:46:18.731Z,13.90
2023-05-14T11:48:46.921Z,12.80
2023-05-14T11:51:14.779Z,15.70
2023-05-14T11:53:42.691Z,14.00
2023-05-14T11:56:11.153Z,12.70
2023-05-14T11:58:38.965Z,14.40
2023-05-14T12:01:07.146Z,14.50
2023-05-14T12:03:35.592Z,12.50
2023-05-14T12:06:09.982Z,12.10
2023-05-14T12:08:37.816Z,12.60
2023-05-14T12:11:05.737Z,12.70
2023-05-14T12:13:33.581Z,15.00
2023-05-14T12:16:03.130Z,12.40
2023-05-14T12:18:32.504Z,12.30
2023-05-14T12:21:05.958Z,12.50
2023-05-14T12:23:34.197Z,14.60
2023-05-14T12:26:06.195Z,13.30
2023-05-14T12:28:38.807Z,13.30
2023-05-14T12:31:06.704Z,15.80
2023-05-14T12:33:34.610Z,13.90
2023-05-14T12:38:34.280Z,13.50
2023-05-14T12:41:02.150Z,15.00
2023-05-14T12:43:32.230Z,12.80
2023-05-14T12:46:00.182Z,14.00
2023-05-14T12:48:27.962Z,14.70
2023-05-14T12:50:55.896Z,14.50
2023-05-14T12:53:23.620Z,13.80
2023-05-14T12:55:51.493Z,11.80
2023-05-14T12:58:19.320Z,14.40
2023-05-14T13:00:47.157Z,13.00
2023-05-14T13:03:15.316Z,11.90
2023-05-14T13:05:43.348Z,14.90
2023-05-14T13:08:11.195Z,11.20
2023-05-14T13:10:39.051Z,10.20
2023-05-14T13:13:06.874Z,13.50
2023-05-14T13:15:36.821Z,11.60
2023-05-14T13:18:05.085Z,11.60
2023-05-14T13:20:34.046Z,11.00
2023-05-14T13:23:01.868Z,11.10
2023-05-14T13:25:29.627Z,7.90
2023-05-14T13:27:57.549Z,8.40
2023-05-14T13:30:25.679Z,9.10
2023-05-14T13:32:53.525Z,8.70
2023-05-14T13:35:21.705Z,8.10
2023-05-14T13:37:49.642Z,9.20
2023-05-14T13:40:17.805Z,9.10
2023-05-14T13:42:45.626Z,7.60
2023-05-14T13:45:13.617Z,9.70
2023-05-14T13:47:41.451Z,9.30
2023-05-14T13:50:09.666Z,9.30
2023-05-14T13:52:39.036Z,10.30
2023-05-14T13:55:08.251Z,10.90
2023-05-14T13:57:36.195Z,8.60
2023-05-14T14:00:05.410Z,9.30
2023-05-14T14:02:34.172Z,8.80
2023-05-14T14:05:02.283Z,9.40
2023-05-14T14:07:30.422Z,10.10
2023-05-14T14:09:58.333Z,6.60
2023-05-14T14:12:26.779Z,7.80
2023-05-14T14:14:54.774Z,8.40
2023-05-14T14:17:22.664Z,9.00
2023-05-14T14:19:50.558Z,9.20
2023-05-14T14:22:18.558Z,8.50
2023-05-14T14:24:46.319Z,6.70
2023-05-14T14:27:14.082Z,7.30
2023-05-14T14:29:41.970Z,8.80
2023-05-14T14:32:09.914Z,8.20
2023-05-14T14:34:37.777Z,8.40
2023-05-14T14:37:06.259Z,7.20
2023-05-14T14:39:34.315Z,8.40
2023-05-14T14:42:02.108Z,8.10
2023-05-14T14:44:29.874Z,7.20
2023-05-14T14:46:57.645Z,9.20
2023-05-14T14:49:26.064Z,7.00
2023-05-14T14:51:53.964Z,10.00
2023-05-14T14:54:21.715Z,7.70
2023-05-14T14:56:52.409Z,7.90
2023-05-14T14:59:20.327Z,6.90
2023-05-14T15:01:48.246Z,5.90
2023-05-14T15:04:16.233Z,7.70
2023-05-14T15:06:44.001Z,6.80
2023-05-14T15:09:11.764Z,7.00
2023-05-14T15:11:40.358Z,7.50
2023-05-14T15:14:08.269Z,9.30
2023-05-14T15:16:36.086Z,6.50
2023-05-14T15:19:04.105Z,6.20
2023-05-14T15:21:32.489Z,6.90
2023-05-14T15:24:00.473Z,5.40
2023-05-14T15:26:28.324Z,6.50
2023-05-14T15:28:57.937Z,8.10
2023-05-14T15:31:26.038Z,6.40
2023-05-14T15:33:56.171Z,6.50
2023-05-14T15:36:24.320Z,9.60
2023-05-14T15:38:52.126Z,8.30
2023-05-14T15:41:20.288Z,9.00
2023-05-14T15:43:48.212Z,11.90
2023-05-14T15:47:27.549Z,8.60
2023-05-14T15:49:55.319Z,8.60
2023-05-14T15:52:23.337Z,9.40
2023-05-14T15:54:51.526Z,7.60
2023-05-14T15:57:20.118Z,8.60
2023-05-14T15:59:48.016Z,17.30
2023-05-14T16:02:16.184Z,45.30
2023-05-14T16:04:48.847Z,22.00
2023-05-14T16:07:16.746Z,10.90
2023-05-14T16:09:44.691Z,11.40
2023-05-14T16:12:12.523Z,24.00
2023-05-14T16:14:42.102Z,24.50
2023-05-14T16:17:10.145Z,40.90
2023-05-14T16:19:39.659Z,31.90
2023-05-14T16:22:07.745Z,9.20
2023-05-14T16:24:36.232Z,19.50
2023-05-14T16:27:04.351Z,23.90
2023-05-14T16:29:32.284Z,15.20
2023-05-14T16:32:00.409Z,7.50
2023-05-14T16:34:28.452Z,17.10
2023-05-14T16:36:56.407Z,16.90
2023-05-14T16:39:26.046Z,7.90
2023-05-14T16:41:53.942Z,12.00
2023-05-14T16:44:24.363Z,8.30
2023-05-14T16:46:52.184Z,12.90
2023-05-14T16:49:22.409Z,13.10
2023-05-14T16:51:50.449Z,6.60
2023-05-14T16:54:18.236Z,13.10
2023-05-14T16:56:48.307Z,7.00
2023-05-14T16:59:17.080Z,5.40
2023-05-14T17:01:44.922Z,4.90
2023-05-14T17:04:12.829Z,5.60
2023-05-14T17:06:40.676Z,4.50
2023-05-14T17:09:08.463Z,6.40
2023-05-14T17:11:36.528Z,6.90
2023-05-14T17:14:03.296Z,5.60
2023-05-14T17:16:31.284Z,4.90
2023-05-14T17:18:58.097Z,5.20
2023-05-14T17:21:26.394Z,6.00
2023-05-14T17:23:54.148Z,5.50
2023-05-14T17:26:22.718Z,7.30
2023-05-14T17:28:50.530Z,5.30
2023-05-14T17:31:18.441Z,5.70
2023-05-14T17:33:46.715Z,6.80
2023-05-14T17:36:14.720Z,7.90
2023-05-14T17:38:42.623Z,6.50
2023-05-14T17:41:10.675Z,6.70
2023-05-14T17:43:38.506Z,6.30
2023-05-14T17:46:07.221Z,8.00
2023-05-14T17:48:35.014Z,6.90
2023-05-14T17:51:02.821Z,6.50
2023-05-14T17:53:30.632Z,5.50
2023-05-14T17:55:58.454Z,9.50
2023-05-14T17:58:26.401Z,8.10
2023-05-14T18:00:54.246Z,9.00
2023-05-14T18:03:22.251Z,5.80
2023-05-14T18:05:51.211Z,6.90
2023-05-14T18:08:19.057Z,7.30
2023-05-14T18:10:46.925Z,7.50
2023-05-14T18:13:14.921Z,7.90
2023-05-14T18:15:43.059Z,6.60
2023-05-14T18:18:10.977Z,6.20
2023-05-14T18:20:38.868Z,5.90
2023-05-14T18:23:06.727Z,5.80
2023-05-14T18:25:34.643Z,5.60
2023-05-14T18:28:02.435Z,4.90
2023-05-14T18:30:30.272Z,6.00
2023-05-14T18:32:59.636Z,6.30
2023-05-14T18:35:28.069Z,5.30
2023-05-14T18:37:56.101Z,4.90
2023-05-14T18:40:24.060Z,6.20
2023-05-14T18:42:51.948Z,3.80
2023-05-14T18:45:20.316Z,5.40
2023-05-14T18:47:48.139Z,4.60
2023-05-14T18:50:16.209Z,3.40
2023-05-14T18:52:44.097Z,3.80
2023-05-14T18:55:11.898Z,4.20
2023-05-14T18:57:39.761Z,4.40
2023-05-14T19:00:10.292Z,4.30
2023-05-14T19:02:38.183Z,3.30
2023-05-14T19:05:07.475Z,6.00
2023-05-14T19:07:37.309Z,3.90
2023-05-14T19:10:06.333Z,4.30
2023-05-14T19:12:34.530Z,3.30
2023-05-14T19:15:03.597Z,4.70
2023-05-14T19:17:33.426Z,4.70
2023-05-14T19:20:02.550Z,6.50
2023-05-14T19:22:31.245Z,3.90
2023-05-14T19:25:00.289Z,3.90
2023-05-14T19:27:29.526Z,3.30
2023-05-14T19:29:58.450Z,5.50
2023-05-14T19:32:27.502Z,5.30
2023-05-14T19:34:56.785Z,3.40
2023-05-14T19:37:26.704Z,4.90
2023-05-14T19:39:55.814Z,5.50
2023-05-14T19:42:25.915Z,7.00
2023-05-14T19:44:56.350Z,5.20
2023-05-14T19:47:25.666Z,5.50
2023-05-14T19:49:54.796Z,5.30
2023-05-14T19:52:23.903Z,5.80
2023-05-14T19:54:52.979Z,5.40
2023-05-14T19:57:23.153Z,3.90
2023-05-14T19:59:52.221Z,5.30
2023-05-14T20:02:22.085Z,5.30
2023-05-14T20:04:51.156Z,5.10
2023-05-14T20:07:20.167Z,6.40
2023-05-14T20:09:47.951Z,7.10
2023-05-14T20:12:16.756Z,6.80
2023-05-14T20:14:44.856Z,7.70
2023-05-14T20:17:12.787Z,7.80
2023-05-14T20:19:41.294Z,7.40
2023-05-14T20:22:09.225Z,5.20
2023-05-14T20:24:37.174Z,5.80
2023-05-14T20:27:05.944Z,6.40
2023-05-14T20:29:33.864Z,5.70
2023-05-14T20:32:01.672Z,5.50
2023-05-14T20:34:29.457Z,5.80
2023-05-14T20:36:58.120Z,5.00
2023-05-14T20:39:25.962Z,4.90
2023-05-14T20:41:53.841Z,5.40
2023-05-14T20:44:21.667Z,4.60
2023-05-14T20:46:49.753Z,3.90
2023-05-14T20:49:17.664Z,5.20
2023-05-14T20:51:45.515Z,4.50
2023-05-14T20:54:13.652Z,4.10
2023-05-14T20:56:41.562Z,4.60
2023-05-14T20:59:10.538Z,5.40
2023-05-14T21:01:39.255Z,5.60
2023-05-14T21:04:07.769Z,6.80
2023-05-14T21:06:35.866Z,4.30
2023-05-14T21:09:03.762Z,5.10
2023-05-14T21:11:32.735Z,3.80
2023-05-14T21:14:00.921Z,3.80
2023-05-14T21:16:28.834Z,4.40
2023-05-14T21:18:57.362Z,4.60
2023-05-14T21:21:25.985Z,4.10
2023-05-14T21:23:53.807Z,4.00
2023-05-14T21:26:22.283Z,4.30
2023-05-14T21:28:50.253Z,4.80
2023-05-14T21:31:18.087Z,3.30
2023-05-14T21:33:45.990Z,4.30
2023-05-14T21:36:13.908Z,4.80
2023-05-14T21:38:42.064Z,4.60
2023-05-14T21:41:09.887Z,4.80
2023-05-14T21:43:37.693Z,4.90
2023-05-14T21:46:05.548Z,5.60
2023-05-14T21:48:33.660Z,5.30
2023-05-14T21:51:02.040Z,4.90
2023-05-14T21:53:29.917Z,4.90
2023-05-14T21:55:57.730Z,4.30
2023-05-14T21:58:26.692Z,4.50
2023-05-14T22:00:54.508Z,3.90
2023-05-14T22:03:22.450Z,4.60
2023-05-14T22:05:50.406Z,4.20
2023-05-14T22:08:18.250Z,4.60
2023-05-14T22:10:47.487Z,4.50
2023-05-14T22:13:15.492Z,4.10
2023-05-14T22:15:43.388Z,5.70
2023-05-14T22:18:12.792Z,4.00
2023-05-14T22:20:41.271Z,3.80
2023-05-14T22:23:09.123Z,3.80
2023-05-14T22:25:37.059Z,5.40
2023-05-14T22:28:05.119Z,4.60
2023-05-14T22:30:32.938Z,4.50
2023-05-14T22:33:00.827Z,5.00
2023-05-14T22:35:28.681Z,4.20
2023-05-14T22:37:56.416Z,5.20
2023-05-14T22:40:24.505Z,4.90
2023-05-14T22:42:52.308Z,4.60
2023-05-14T22:45:20.084Z,4.30
2023-05-14T22:47:47.890Z,4.00
2023-05-14T22:50:15.789Z,6.60
2023-05-14T22:52:43.656Z,4.40
2023-05-14T22:55:11.534Z,6.40
2023-05-14T22:57:39.733Z,7.20
2023-05-14T23:00:09.032Z,4.70
2023-05-14T23:02:36.831Z,4.70
2023-05-14T23:05:06.055Z,5.40
2023-05-14T23:07:34.013Z,4.00
2023-05-14T23:10:02.003Z,4.40
2023-05-14T23:12:29.766Z,4.80
2023-05-14T23:14:59.122Z,6.00
2023-05-14T23:17:27.406Z,4.50
2023-05-14T23:19:55.460Z,6.90
2023-05-14T23:22:23.351Z,5.30
2023-05-14T23:24:51.139Z,6.60
2023-05-14T23:27:19.451Z,3.80
2023-05-14T23:29:47.295Z,4.60
2023-05-14T23:32:15.103Z,4.10
2023-05-14T23:34:42.966Z,4.40
2023-05-14T23:37:10.976Z,4.20
2023-05-14T23:39:38.714Z,4.10
2023-05-14T23:42:06.701Z,3.10
2023-05-14T23:44:34.536Z,4.00
2023-05-14T23:47:02.936Z,3.40
2023-05-14T23:49:30.911Z,5.60
2023-05-14T23:51:58.705Z,6.00
2023-05-14T23:54:26.564Z,5.90
2023-05-14T23:56:54.922Z,3.90
2023-05-14T23:59:22.825Z,3.20
